Mavisdale, VA (24627)

1:11 AM EST on February 13, 2016 (GMT -0500)
Oakwood, VA | | Change Station
CLOSE
Current Station
Personal Weather Station
Location: Oakwood, VA
Elevation: 1404 ft
Nearby Weather Stations

Elev 1404 ft 37.21 °N, 82.01 °W | Updated 12 minutes ago

Overcast
Overcast
26.1 °F
Feels Like 17 °F
N
8.9
Wind Variable Wind from WNW

Today
High -- | Low -- °F
--% Chance of Precip.
Yesterday
High -- | Low -- °F
Precip. -- in
Pressure 30.11 in
Visibility -9999.0 miles
Clouds Mostly Cloudy 2200 ft
Mostly Cloudy 2800 ft
Overcast 4400 ft
Windchill 17 °F
Dew Point 15 °F
Humidity 63%
Rainfall 0.00 in
Snow Depth Not available.
7:20 AM 6:06 PM
Waxing Crescent, 27% visible
METAR KLNP 130555Z AUTO 30012G15KT BKN022 BKN028 OVC044 M05/M11 A3011 RMK AO2 PWINO
Pressure 30.11 in
Visibility -9999.0 miles
Clouds Mostly Cloudy 2200 ft
Mostly Cloudy 2800 ft
Overcast 4400 ft
Windchill 17 °F
Dew Point 15 °F
Humidity 63%
Rainfall 0.00 in
Snow Depth Not available.
7:20 AM 6:06 PM
Waxing Crescent, 27% visible
METAR KLNP 130555Z AUTO 30012G15KT BKN022 BKN028 OVC044 M05/M11 A3011 RMK AO2 PWINO

10-Day Weather Forecast

Almanac

Astronomy

Feb. 13, 2016 Rise Set
Actual Time
Civil Twilight
Nautical Twilight
Astronomical Twilight
Moon
Length of Visible Light
Length of Day
Tomorrow will be .
, % of the Moon is Illuminated

Today's Extremes

State Highs State Lows

Community

WunderPhotos

Upload Photos

1,892,513 photos uploaded!

WunderBlog® & News

Nearby

Air Quality

  Air Quality AQ Index Pollutant
Not available.

Snow Depth

Station Depth Elevation

Earthquake Activity

City Distance Mag. Time & Date
Minimum magnitude displayed is 2.5.

Coastal Water Temperatures

Place Temperature

Stations

Nearby Weather Stations

Station Location Temp. Windchill Dew Point Humidity Wind Precip. Elev Updated Type
                   

Watches & Warnings

There are currently no watches in effect.